Time;durP1;ratioP1;P1;durP2;ratioP2;P2;SDS_P1;SDS_P2;PMS_P1;PMS_P2;Temp;Humidity;BMP_temperature;BMP_pressure;BME280_temperature;BME280_humidity;BME280_pressure;Samples;Min_cycle;Max_cycle;Signal;HPM_P1;HPM_P2
2023/06/03 00:01:11;;;;;;;;;;;;;;;14.77;nan;102476.88;5043833;28;20517;-82
2023/06/03 00:03:36;;;;;;;;;;;;;;;14.69;nan;102468.31;5042151;28;19917;-81
2023/06/03 00:06:02;;;;;;;;;;;;;;;14.65;nan;102469.81;5043893;28;19959;-81
2023/06/03 00:08:27;;;;;;;;;;;;;;;14.60;nan;102467.03;5044785;28;20298;-81
2023/06/03 00:10:53;;;;;;;;;;;;;;;14.50;nan;102473.78;5042651;28;19983;-82
2023/06/03 00:13:18;;;;;;;;;;;;;;;14.43;nan;102472.25;5045689;28;20385;-82
2023/06/03 00:15:44;;;;;;;;;;;;;;;14.34;nan;102476.31;5044533;28;19925;-81
2023/06/03 00:18:09;;;;;;;;;;;;;;;14.24;nan;102479.59;5047105;28;20430;-81
2023/06/03 00:20:36;;;;;;;;;;;;;;;14.15;nan;102480.94;5048633;28;20007;-82
2023/06/03 00:23:02;;;;;;;;;;;;;;;14.08;nan;102491.00;5046545;28;20470;-81
2023/06/03 00:25:27;;;;;;;;;;;;;;;14.03;nan;102478.22;5044551;28;19917;-82
2023/06/03 00:27:53;;;;;;;;;;;;;;;13.98;nan;102483.47;5042538;28;19920;-80
2023/06/03 00:30:18;;;;;;;;;;;;;;;13.94;nan;102487.66;5043494;28;19951;-81
2023/06/03 00:32:44;;;;;;;;;;;;;;;13.89;nan;102484.84;5045616;28;19929;-81
2023/06/03 00:35:09;;;;;;;;;;;;;;;13.85;nan;102480.97;5046485;28;19920;-81
2023/06/03 00:37:35;;;;;;;;;;;;;;;13.81;nan;102482.44;5044648;28;20032;-82
2023/06/03 00:40:00;;;;;;;;;;;;;;;13.76;nan;102479.63;5044006;28;19999;-81
2023/06/03 00:42:25;;;;;;;;;;;;;;;13.69;nan;102486.97;5042431;28;19917;-81
2023/06/03 00:44:50;;;;;;;;;;;;;;;13.61;nan;102490.78;5045453;28;19924;-82
2023/06/03 00:47:17;;;;;;;;;;;;;;;13.46;nan;102493.03;5045232;28;19917;-81
2023/06/03 00:49:42;;;;;;;;;;;;;;;13.33;nan;102488.63;5045117;28;19958;-81
2023/06/03 00:52:08;;;;;;;;;;;;;;;13.24;nan;102489.97;5042441;28;20388;-81
2023/06/03 00:54:33;;;;;;;;;;;;;;;13.23;nan;102485.63;5043879;28;20295;-81
2023/06/03 00:57:00;;;;;;;;;;;;;;;13.25;nan;102488.91;5045810;28;19924;-81
2023/06/03 00:59:26;;;;;;;;;;;;;;;13.26;nan;102486.00;5045849;28;20008;-81
2023/06/03 01:01:51;;;;;;;;;;;;;;;13.25;nan;102491.59;5042516;28;20007;-81
2023/06/03 01:04:17;;;;;;;;;;;;;;;13.17;nan;102494.56;5043403;28;19921;-81
2023/06/03 01:07:00;;;;;;;;;;;;;;;13.10;nan;102494.63;5044826;28;20876;-81
2023/06/03 01:09:41;;;;;;;;;;;;;;;13.06;nan;102497.97;5043780;28;20184;-81
2023/06/03 01:12:14;;;;;;;;;;;;;;;12.96;nan;102499.31;5042051;28;19924;-82
2023/06/03 01:14:44;;;;;;;;;;;;;;;12.89;nan;102501.22;5043788;28;19921;-81
2023/06/03 01:17:11;;;;;;;;;;;;;;;12.83;nan;102487.84;5043708;28;19917;-81
2023/06/03 01:19:47;;;;;;;;;;;;;;;12.78;nan;102499.28;5042728;28;19939;-81
2023/06/03 01:22:14;;;;;;;;;;;;;;;12.73;nan;102498.28;5044420;28;20296;-81
2023/06/03 01:24:40;;;;;;;;;;;;;;;12.68;nan;102493.56;5044429;28;20011;-81
2023/06/03 01:27:06;;;;;;;;;;;;;;;12.61;nan;102490.13;5046761;28;19928;-81
2023/06/03 01:29:31;;;;;;;;;;;;;;;12.54;nan;102495.53;5044765;28;19916;-81
2023/06/03 01:31:57;;;;;;;;;;;;;;;12.50;nan;102493.50;5044870;28;19927;-81
2023/06/03 01:34:23;;;;;;;;;;;;;;;12.46;nan;102501.19;5047900;28;20373;-81
2023/06/03 01:36:48;;;;;;;;;;;;;;;12.43;nan;102498.09;5049401;28;19933;-81
2023/06/03 01:39:14;;;;;;;;;;;;;;;12.37;nan;102497.09;5049024;28;19948;-81
2023/06/03 01:41:42;;;;;;;;;;;;;;;12.31;nan;102501.47;5049233;28;19917;-81
2023/06/03 01:44:08;;;;;;;;;;;;;;;12.32;nan;102500.44;5047452;28;19925;-81
2023/06/03 01:46:33;;;;;;;;;;;;;;;12.38;nan;102501.44;5047017;28;20375;-81
2023/06/03 01:48:59;;;;;;;;;;;;;;;12.38;nan;102502.25;5050293;28;19917;-81
2023/06/03 01:51:25;;;;;;;;;;;;;;;12.32;nan;102497.75;5048248;28;19966;-81
2023/06/03 01:53:50;;;;;;;;;;;;;;;12.25;nan;102496.16;5042614;28;19928;-81
2023/06/03 01:56:16;;;;;;;;;;;;;;;12.21;nan;102498.47;5045186;28;19921;-81
2023/06/03 01:58:41;;;;;;;;;;;;;;;12.18;nan;102498.88;5049781;28;19917;-82
2023/06/03 02:01:06;;;;;;;;;;;;;;;12.13;nan;102501.38;5051184;28;19917;-81
2023/06/03 02:03:32;;;;;;;;;;;;;;;12.10;nan;102499.13;5046759;28;19917;-81
2023/06/03 02:05:57;;;;;;;;;;;;;;;12.03;nan;102499.19;5049606;28;19966;-81
2023/06/03 02:08:22;;;;;;;;;;;;;;;11.99;nan;102497.13;5049895;28;19978;-81
2023/06/03 02:10:48;;;;;;;;;;;;;;;11.97;nan;102508.09;5046778;28;19921;-81
2023/06/03 02:13:13;;;;;;;;;;;;;;;11.95;nan;102509.34;5049010;28;20009;-81
2023/06/03 02:15:40;;;;;;;;;;;;;;;11.93;nan;102503.34;5045092;28;20419;-81
2023/06/03 02:18:06;;;;;;;;;;;;;;;11.88;nan;102508.56;5047095;28;19916;-81
2023/06/03 02:20:31;;;;;;;;;;;;;;;11.83;nan;102508.34;5044863;28;19921;-81
2023/06/03 02:22:57;;;;;;;;;;;;;;;11.77;nan;102504.63;5049335;28;19921;-81
2023/06/03 02:25:22;;;;;;;;;;;;;;;11.77;nan;102513.50;5049708;28;21079;-81
2023/06/03 02:27:48;;;;;;;;;;;;;;;11.77;nan;102508.16;5048040;28;19975;-81
2023/06/03 02:30:13;;;;;;;;;;;;;;;11.75;nan;102525.50;5046807;28;19943;-81
2023/06/03 02:32:38;;;;;;;;;;;;;;;11.70;nan;102514.59;5042806;28;19924;-81
2023/06/03 02:35:04;;;;;;;;;;;;;;;11.64;nan;102521.63;5045898;28;19959;-82
2023/06/03 02:37:30;;;;;;;;;;;;;;;11.63;nan;102519.97;5045716;28;19972;-81
2023/06/03 02:39:56;;;;;;;;;;;;;;;11.65;nan;102523.25;5047530;28;19924;-81
2023/06/03 02:42:21;;;;;;;;;;;;;;;11.64;nan;102521.63;5046510;28;19917;-81
2023/06/03 02:44:46;;;;;;;;;;;;;;;11.59;nan;102523.28;5049112;28;19924;-81
2023/06/03 02:47:12;;;;;;;;;;;;;;;11.53;nan;102524.97;5046505;28;19925;-81
2023/06/03 02:49:37;;;;;;;;;;;;;;;11.48;nan;102530.94;5046251;28;19927;-81
2023/06/03 02:52:03;;;;;;;;;;;;;;;11.43;nan;102535.31;5049219;28;19968;-81
2023/06/03 02:54:28;;;;;;;;;;;;;;;11.41;nan;102543.56;5047142;28;19925;-81
2023/06/03 02:56:53;;;;;;;;;;;;;;;11.40;nan;102535.72;5048670;28;20019;-81
2023/06/03 02:59:19;;;;;;;;;;;;;;;11.41;nan;102537.38;5045284;28;19920;-81
2023/06/03 03:01:44;;;;;;;;;;;;;;;11.39;nan;102542.13;5043830;28;20282;-81
2023/06/03 03:04:10;;;;;;;;;;;;;;;11.34;nan;102544.63;5047183;28;19982;-81
2023/06/03 03:06:37;;;;;;;;;;;;;;;11.29;nan;102539.03;5057853;28;19916;-81
2023/06/03 03:09:04;;;;;;;;;;;;;;;11.27;nan;102541.94;5045567;28;19924;-81
2023/06/03 03:11:29;;;;;;;;;;;;;;;11.27;nan;102541.13;5042143;28;20016;-81
2023/06/03 03:13:55;;;;;;;;;;;;;;;11.27;nan;102551.84;5046889;28;19991;-81
2023/06/03 03:16:21;;;;;;;;;;;;;;;11.27;nan;102546.47;5047300;28;20325;-81
2023/06/03 03:18:46;;;;;;;;;;;;;;;11.22;nan;102544.44;5045497;28;19920;-81
2023/06/03 03:21:13;;;;;;;;;;;;;;;11.22;nan;102548.97;5048981;28;19925;-81
2023/06/03 03:23:38;;;;;;;;;;;;;;;11.22;nan;102544.44;5047212;28;19924;-81
2023/06/03 03:26:06;;;;;;;;;;;;;;;11.25;nan;102553.91;5048116;28;19946;-81
2023/06/03 03:28:31;;;;;;;;;;;;;;;11.29;nan;102557.81;5048098;28;20358;-81
2023/06/03 03:30:57;;;;;;;;;;;;;;;11.33;nan;102556.41;5063923;28;19917;-81
2023/06/03 03:33:22;;;;;;;;;;;;;;;11.32;nan;102560.13;5047481;28;19924;-81
2023/06/03 03:35:49;;;;;;;;;;;;;;;11.30;nan;102557.63;5046593;28;19966;-81
2023/06/03 03:38:15;;;;;;;;;;;;;;;11.33;nan;102567.13;5046637;28;20511;-81
2023/06/03 03:40:40;;;;;;;;;;;;;;;11.40;nan;102562.56;5044937;28;19928;-81
2023/06/03 03:43:12;;;;;;;;;;;;;;;11.47;nan;102568.75;5057471;28;19917;-81
2023/06/03 03:45:37;;;;;;;;;;;;;;;11.56;nan;102566.66;5045410;28;19925;-81
2023/06/03 03:48:06;;;;;;;;;;;;;;;11.65;nan;102568.91;5043585;28;20278;-81
2023/06/03 03:50:40;;;;;;;;;;;;;;;11.78;nan;102571.59;5045676;28;19917;-81
2023/06/03 03:53:06;;;;;;;;;;;;;;;11.87;nan;102572.19;5041582;28;19917;-81
2023/06/03 03:55:39;;;;;;;;;;;;;;;11.98;nan;102576.06;5039825;28;19928;-82
2023/06/03 03:58:06;;;;;;;;;;;;;;;12.11;nan;102573.31;5038817;28;20411;-81
2023/06/03 04:00:33;;;;;;;;;;;;;;;12.22;nan;102571.84;5039401;28;19925;-81
2023/06/03 04:02:58;;;;;;;;;;;;;;;12.34;nan;102570.09;5038578;28;20503;-81
2023/06/03 04:05:25;;;;;;;;;;;;;;;12.45;nan;102577.50;5038048;28;19925;-81
2023/06/03 04:07:50;;;;;;;;;;;;;;;12.57;nan;102583.03;5038006;28;19998;-82
2023/06/03 04:10:19;;;;;;;;;;;;;;;12.69;nan;102581.25;5038332;28;20380;-81
2023/06/03 04:12:46;;;;;;;;;;;;;;;12.76;nan;102587.44;5042847;28;19921;-81
2023/06/03 04:15:12;;;;;;;;;;;;;;;12.83;nan;102588.22;5045072;28;19975;-81
2023/06/03 04:17:37;;;;;;;;;;;;;;;12.94;nan;102586.69;5042599;28;19921;-82
2023/06/03 04:20:23;;;;;;;;;;;;;;;13.07;nan;102588.44;5042135;28;20014;-81
2023/06/03 04:22:51;;;;;;;;;;;;;;;13.19;nan;102584.84;5038170;28;20376;-81
2023/06/03 04:25:18;;;;;;;;;;;;;;;13.29;nan;102587.03;5046886;28;19924;-81
2023/06/03 04:27:43;;;;;;;;;;;;;;;13.42;nan;102583.38;5048372;28;19963;-81
2023/06/03 04:30:08;;;;;;;;;;;;;;;13.53;nan;102588.03;5041147;28;20011;-81
2023/06/03 04:32:34;;;;;;;;;;;;;;;13.67;nan;102591.44;5046534;28;19986;-81
2023/06/03 04:34:59;;;;;;;;;;;;;;;13.79;nan;102578.84;5045765;28;19935;-82
2023/06/03 04:37:26;;;;;;;;;;;;;;;13.93;nan;102587.59;5049498;28;19939;-82
2023/06/03 04:39:51;;;;;;;;;;;;;;;14.05;nan;102589.31;5042855;28;19917;-82
2023/06/03 04:42:17;;;;;;;;;;;;;;;14.16;nan;102591.22;5043467;28;20517;-82
2023/06/03 04:44:42;;;;;;;;;;;;;;;14.29;nan;102584.03;5046038;28;19982;-81
2023/06/03 04:47:11;;;;;;;;;;;;;;;14.41;nan;102584.91;5045619;28;19959;-82
2023/06/03 04:49:38;;;;;;;;;;;;;;;14.55;nan;102599.06;5043741;28;19925;-82
2023/06/03 04:52:04;;;;;;;;;;;;;;;14.65;nan;102592.06;5047179;28;19924;-81
2023/06/03 04:54:29;;;;;;;;;;;;;;;14.78;nan;102589.16;5044794;28;19928;-81
2023/06/03 04:56:54;;;;;;;;;;;;;;;14.92;nan;102595.19;5040892;28;19931;-82
2023/06/03 04:59:20;;;;;;;;;;;;;;;15.06;nan;102601.97;5045603;28;19917;-84
2023/06/03 05:01:48;;;;;;;;;;;;;;;15.21;nan;102593.44;5046426;28;19928;-82
2023/06/03 05:04:14;;;;;;;;;;;;;;;15.37;nan;102586.50;5043543;28;19928;-82
2023/06/03 05:06:39;;;;;;;;;;;;;;;15.54;nan;102587.44;5046061;28;19921;-82
2023/06/03 05:09:05;;;;;;;;;;;;;;;15.70;nan;102588.63;5047251;28;20503;-82
2023/06/03 05:11:31;;;;;;;;;;;;;;;15.85;nan;102591.66;5049279;28;20011;-81
2023/06/03 05:13:56;;;;;;;;;;;;;;;15.94;nan;102582.09;5049606;28;20007;-82
2023/06/03 05:16:21;;;;;;;;;;;;;;;16.06;nan;102584.78;5063731;28;20395;-82
2023/06/03 05:18:47;;;;;;;;;;;;;;;16.20;nan;102582.63;5047302;28;20396;-81
2023/06/03 05:21:12;;;;;;;;;;;;;;;16.32;nan;102583.38;5049000;28;20403;-82
2023/06/03 05:23:37;;;;;;;;;;;;;;;16.42;nan;102578.19;5047599;28;19931;-82
2023/06/03 05:26:03;;;;;;;;;;;;;;;16.54;nan;102576.25;5048463;28;20007;-82
2023/06/03 05:28:28;;;;;;;;;;;;;;;16.69;nan;102578.41;5050994;28;20003;-82
2023/06/03 05:30:53;;;;;;;;;;;;;;;16.81;nan;102578.34;5050611;28;20304;-81
2023/06/03 05:33:32;;;;;;;;;;;;;;;16.95;nan;102582.38;5049343;28;19916;-82
2023/06/03 05:35:57;;;;;;;;;;;;;;;17.08;nan;102570.41;5050234;28;19971;-82
2023/06/03 05:38:23;;;;;;;;;;;;;;;17.21;nan;102570.84;5046411;28;19959;-82
2023/06/03 05:40:49;;;;;;;;;;;;;;;17.37;nan;102577.31;5045011;28;19917;-82
2023/06/03 05:43:15;;;;;;;;;;;;;;;17.50;nan;102579.69;5047394;28;19925;-82
2023/06/03 05:45:41;;;;;;;;;;;;;;;17.66;nan;102583.44;5047564;28;19927;-82
2023/06/03 05:48:06;;;;;;;;;;;;;;;17.81;nan;102582.84;5047911;28;19917;-82
2023/06/03 05:50:35;;;;;;;;;;;;;;;17.95;nan;102580.53;5046338;28;19916;-82
2023/06/03 05:53:01;;;;;;;;;;;;;;;18.10;nan;102580.72;5049171;28;19921;-83
2023/06/03 05:55:26;;;;;;;;;;;;;;;18.24;nan;102581.16;5047629;28;19925;-82
2023/06/03 05:57:51;;;;;;;;;;;;;;;18.38;nan;102585.13;5049421;28;20711;-82
2023/06/03 06:00:17;;;;;;;;;;;;;;;18.47;nan;102583.56;5049409;28;19928;-82
2023/06/03 06:02:44;;;;;;;;;;;;;;;18.55;nan;102574.16;5045859;28;19925;-82
2023/06/03 06:05:09;;;;;;;;;;;;;;;18.67;nan;102583.81;5049984;28;20466;-81
2023/06/03 06:07:34;;;;;;;;;;;;;;;18.78;nan;102579.28;5047281;28;19916;-82
2023/06/03 06:10:00;;;;;;;;;;;;;;;18.87;nan;102580.44;5048464;28;20411;-82
2023/06/03 06:12:25;;;;;;;;;;;;;;;19.00;nan;102579.16;5046579;28;19967;-81
2023/06/03 06:14:50;;;;;;;;;;;;;;;19.06;nan;102580.88;5050315;28;20513;-82
2023/06/03 06:17:16;;;;;;;;;;;;;;;19.18;nan;102578.75;5045878;28;20012;-82
2023/06/03 06:19:42;;;;;;;;;;;;;;;19.28;nan;102584.28;5046486;28;19928;-82
2023/06/03 06:22:07;;;;;;;;;;;;;;;19.42;nan;102584.63;5048908;28;19924;-82
2023/06/03 06:24:32;;;;;;;;;;;;;;;19.56;nan;102580.38;5050168;28;20356;-83
2023/06/03 06:26:58;;;;;;;;;;;;;;;19.71;nan;102584.25;5049470;28;21041;-82
2023/06/03 06:29:23;;;;;;;;;;;;;;;19.84;nan;102581.88;5049223;28;20492;-83
2023/06/03 06:31:49;;;;;;;;;;;;;;;19.98;nan;102590.38;5047634;28;19923;-82
2023/06/03 06:34:16;;;;;;;;;;;;;;;20.13;nan;102585.00;5047081;28;20183;-82
2023/06/03 06:36:43;;;;;;;;;;;;;;;20.28;nan;102586.09;5047334;28;19928;-83
2023/06/03 06:39:35;;;;;;;;;;;;;;;20.40;nan;102583.94;5050341;28;19935;-82
2023/06/03 06:42:12;;;;;;;;;;;;;;;20.48;nan;102588.91;5047504;28;19996;-82
2023/06/03 06:44:47;;;;;;;;;;;;;;;20.58;nan;102585.38;5047992;28;20861;-81
2023/06/03 06:47:14;;;;;;;;;;;;;;;20.67;nan;102581.84;5047828;28;19960;-83
2023/06/03 06:49:40;;;;;;;;;;;;;;;20.80;nan;102585.91;5045005;28;19921;-82
2023/06/03 06:52:08;;;;;;;;;;;;;;;20.94;nan;102587.00;5048467;28;19928;-82
2023/06/03 06:54:33;;;;;;;;;;;;;;;21.07;nan;102582.94;5045764;28;20511;-83
2023/06/03 06:56:59;;;;;;;;;;;;;;;21.20;nan;102589.72;5045157;28;19921;-82
2023/06/03 06:59:25;;;;;;;;;;;;;;;21.34;nan;102577.16;5045554;28;20410;-82
2023/06/03 07:01:50;;;;;;;;;;;;;;;21.47;nan;102575.78;5044712;28;19916;-82
2023/06/03 07:04:15;;;;;;;;;;;;;;;21.57;nan;102578.50;5047169;28;19925;-82
2023/06/03 07:06:41;;;;;;;;;;;;;;;21.73;nan;102580.06;5043007;28;20093;-81
2023/06/03 07:09:06;;;;;;;;;;;;;;;21.86;nan;102579.44;5044328;28;19917;-82
2023/06/03 07:11:39;;;;;;;;;;;;;;;22.00;nan;102572.28;5045553;28;19921;-83
2023/06/03 07:14:05;;;;;;;;;;;;;;;22.12;nan;102574.72;5043857;28;20479;-82
2023/06/03 07:16:30;;;;;;;;;;;;;;;22.20;nan;102576.03;5044174;28;20118;-81
2023/06/03 07:18:55;;;;;;;;;;;;;;;22.21;nan;102575.75;5046725;28;19943;-82
2023/06/03 07:21:25;;;;;;;;;;;;;;;22.30;nan;102576.00;5044004;28;20612;-83
2023/06/03 07:23:50;;;;;;;;;;;;;;;22.37;nan;102579.19;5045145;28;20050;-82
2023/06/03 07:26:16;;;;;;;;;;;;;;;22.52;nan;102570.91;5043102;28;20020;-82
2023/06/03 07:28:41;;;;;;;;;;;;;;;22.68;nan;102579.00;5047087;28;19979;-82
2023/06/03 07:31:09;;;;;;;;;;;;;;;22.85;nan;102574.78;5042802;28;20260;-81
2023/06/03 07:33:44;;;;;;;;;;;;;;;22.98;nan;102573.31;5043821;28;19917;-82
2023/06/03 07:36:09;;;;;;;;;;;;;;;23.08;nan;102586.84;5045333;28;19928;-82
2023/06/03 07:38:38;;;;;;;;;;;;;;;23.21;nan;102577.16;5044311;28;19917;-83
2023/06/03 07:41:03;;;;;;;;;;;;;;;23.33;nan;102579.50;5046733;28;20578;-81
2023/06/03 07:43:29;;;;;;;;;;;;;;;23.46;nan;102568.69;5042986;28;20396;-82
2023/06/03 07:45:54;;;;;;;;;;;;;;;23.60;nan;102568.84;5045719;28;21609;-82
2023/06/03 07:48:20;;;;;;;;;;;;;;;23.67;nan;102574.75;5045365;28;19916;-82
2023/06/03 07:50:48;;;;;;;;;;;;;;;23.76;nan;102561.25;5041760;28;20422;-83
2023/06/03 07:53:21;;;;;;;;;;;;;;;23.85;nan;102569.59;5046585;28;19916;-82
2023/06/03 07:55:47;;;;;;;;;;;;;;;23.90;nan;102566.81;5042950;28;20366;-82
2023/06/03 07:58:14;;;;;;;;;;;;;;;23.93;nan;102567.03;5042769;28;20008;-82
2023/06/03 08:00:42;;;;;;;;;;;;;;;24.01;nan;102569.13;5045992;28;19967;-81
2023/06/03 08:03:07;;;;;;;;;;;;;;;24.19;nan;102564.75;5045125;28;19916;-82
2023/06/03 08:05:36;;;;;;;;;;;;;;;24.26;nan;102564.41;5041414;28;20003;-83
2023/06/03 08:08:05;;;;;;;;;;;;;;;24.18;nan;102556.84;5047324;28;19927;-82
2023/06/03 08:10:32;;;;;;;;;;;;;;;24.21;nan;102562.53;5045345;28;20074;-82
2023/06/03 08:12:57;;;;;;;;;;;;;;;24.32;nan;102557.75;5041389;28;19925;-82
2023/06/03 08:15:27;;;;;;;;;;;;;;;24.51;nan;102549.50;5046652;28;20442;-82
2023/06/03 08:17:52;;;;;;;;;;;;;;;24.44;nan;102549.91;5044643;28;19932;-83
2023/06/03 08:20:22;;;;;;;;;;;;;;;24.37;nan;102560.41;5044139;28;19921;-82
2023/06/03 08:22:47;;;;;;;;;;;;;;;24.43;nan;102552.94;5044560;28;20031;-83
2023/06/03 08:25:13;;;;;;;;;;;;;;;24.51;nan;102555.00;5046943;28;20000;-83
2023/06/03 08:27:38;;;;;;;;;;;;;;;24.75;nan;102555.66;5039355;28;19963;-82
2023/06/03 08:30:04;;;;;;;;;;;;;;;24.99;nan;102552.81;5040578;28;19963;-83
2023/06/03 08:32:32;;;;;;;;;;;;;;;25.20;nan;102556.81;5042246;28;19948;-83
2023/06/03 08:34:57;;;;;;;;;;;;;;;25.43;nan;102556.94;5040688;28;19921;-83
2023/06/03 08:37:22;;;;;;;;;;;;;;;25.61;nan;102556.00;5042413;28;19923;-82
2023/06/03 08:39:48;;;;;;;;;;;;;;;25.82;nan;102548.97;5044641;28;19960;-82
2023/06/03 08:42:15;;;;;;;;;;;;;;;26.02;nan;102552.41;5044413;28;19920;-83
2023/06/03 08:44:49;;;;;;;;;;;;;;;26.15;nan;102555.13;5039557;28;19916;-83
2023/06/03 08:47:23;;;;;;;;;;;;;;;26.18;nan;102559.97;5039371;28;19924;-84
2023/06/03 08:50:00;;;;;;;;;;;;;;;26.22;nan;102557.44;5040993;28;19917;-82
2023/06/03 08:52:28;;;;;;;;;;;;;;;26.34;nan;102554.13;5036793;28;19967;-82
2023/06/03 08:54:56;;;;;;;;;;;;;;;26.42;nan;102556.19;5038808;28;20288;-83
2023/06/03 08:57:21;;;;;;;;;;;;;;;26.57;nan;102557.72;5040308;28;19924;-82
2023/06/03 08:59:52;;;;;;;;;;;;;;;26.74;nan;102555.91;5054774;28;19925;-83
2023/06/03 09:02:17;;;;;;;;;;;;;;;26.94;nan;102557.31;5042099;28;19927;-81
2023/06/03 09:04:43;;;;;;;;;;;;;;;27.08;nan;102555.31;5037144;28;19921;-82
2023/06/03 09:07:10;;;;;;;;;;;;;;;27.10;nan;102553.03;5042244;28;19917;-82
2023/06/03 09:09:36;;;;;;;;;;;;;;;27.18;nan;102551.47;5042348;28;19920;-82
2023/06/03 09:12:03;;;;;;;;;;;;;;;27.28;nan;102556.69;5041800;28;19917;-83
2023/06/03 09:14:29;;;;;;;;;;;;;;;27.39;nan;102552.53;5039767;28;19939;-80
2023/06/03 09:16:55;;;;;;;;;;;;;;;27.53;nan;102544.16;5044115;28;20385;-82
2023/06/03 09:19:20;;;;;;;;;;;;;;;27.65;nan;102552.63;5043156;28;19936;-81
2023/06/03 09:21:46;;;;;;;;;;;;;;;27.78;nan;102545.34;5044186;28;20985;-81
2023/06/03 09:24:12;;;;;;;;;;;;;;;27.89;nan;102541.16;5045804;28;19917;-82
2023/06/03 09:26:37;;;;;;;;;;;;;;;27.97;nan;102548.63;5039357;28;19974;-82
2023/06/03 09:29:03;;;;;;;;;;;;;;;27.96;nan;102547.00;5042541;28;19970;-82
2023/06/03 09:31:29;;;;;;;;;;;;;;;27.97;nan;102545.06;5039895;28;19921;-80
2023/06/03 09:33:54;;;;;;;;;;;;;;;27.72;nan;102532.88;5040695;28;19920;-84
2023/06/03 09:36:20;;;;;;;;;;;;;;;27.40;nan;102534.88;5037617;28;19936;-83
2023/06/03 09:38:46;;;;;;;;;;;;;;;27.34;nan;102533.41;5040783;28;19916;-82
2023/06/03 09:41:15;;;;;;;;;;;;;;;27.40;nan;102520.31;5044598;28;19958;-83
2023/06/03 09:43:50;;;;;;;;;;;;;;;27.40;nan;102529.38;5043840;28;19978;-81
2023/06/03 09:46:16;;;;;;;;;;;;;;;27.57;nan;102525.03;5046085;28;19916;-81
2023/06/03 09:48:41;;;;;;;;;;;;;;;27.83;nan;102531.44;5044244;28;19934;-80
2023/06/03 09:51:06;;;;;;;;;;;;;;;28.13;nan;102526.09;5042392;28;19924;-84
2023/06/03 09:53:32;;;;;;;;;;;;;;;28.38;nan;102530.81;5045044;28;19916;-83
2023/06/03 09:55:57;;;;;;;;;;;;;;;28.58;nan;102524.63;5045070;28;19925;-83
2023/06/03 09:58:23;;;;;;;;;;;;;;;28.62;nan;102521.22;5047682;28;19917;-83
2023/06/03 10:00:49;;;;;;;;;;;;;;;28.54;nan;102514.56;5049541;28;19917;-83
2023/06/03 10:03:15;;;;;;;;;;;;;;;28.40;nan;102516.72;5046026;28;19921;-83
2023/06/03 10:05:41;;;;;;;;;;;;;;;28.25;nan;102520.75;5048903;28;19920;-83
2023/06/03 10:08:06;;;;;;;;;;;;;;;28.32;nan;102515.56;5049075;28;19920;-82
2023/06/03 10:10:35;;;;;;;;;;;;;;;28.54;nan;102507.09;5048450;28;20467;-81
2023/06/03 10:13:20;;;;;;;;;;;;;;;28.80;nan;102509.78;5048066;28;19921;-81
2023/06/03 10:15:45;;;;;;;;;;;;;;;29.07;nan;102507.75;5043969;28;19979;-82
2023/06/03 10:18:10;;;;;;;;;;;;;;;29.29;nan;102510.25;5044152;28;20011;-81
2023/06/03 10:20:37;;;;;;;;;;;;;;;29.41;nan;102501.25;5045377;28;20641;-81
2023/06/03 10:23:03;;;;;;;;;;;;;;;29.56;nan;102497.94;5045163;28;19927;-82
2023/06/03 10:25:33;;;;;;;;;;;;;;;29.65;nan;102495.94;5044285;28;19921;-81
2023/06/03 10:28:02;;;;;;;;;;;;;;;29.69;nan;102499.63;5043633;28;19964;-81
2023/06/03 10:30:30;;;;;;;;;;;;;;;29.79;nan;102498.41;5043315;28;19921;-82
2023/06/03 10:32:57;;;;;;;;;;;;;;;29.92;nan;102499.28;5052513;28;19962;-80
2023/06/03 10:35:22;;;;;;;;;;;;;;;30.08;nan;102492.84;5044966;28;20383;-79
2023/06/03 10:37:48;;;;;;;;;;;;;;;30.30;nan;102499.13;5043709;28;20055;-79
2023/06/03 10:40:14;;;;;;;;;;;;;;;30.40;nan;102497.91;5044015;28;20007;-82
2023/06/03 10:42:40;;;;;;;;;;;;;;;30.45;nan;102490.19;5046102;28;20262;-80
2023/06/03 10:45:05;;;;;;;;;;;;;;;30.53;nan;102491.28;5043161;28;19964;-82
2023/06/03 10:47:32;;;;;;;;;;;;;;;30.59;nan;102487.13;5042204;28;19986;-81
2023/06/03 10:50:15;;;;;;;;;;;;;;;30.65;nan;102489.34;5046101;28;20087;-82
2023/06/03 10:52:45;;;;;;;;;;;;;;;30.75;nan;102482.56;5041472;28;19979;-83
2023/06/03 10:55:30;;;;;;;;;;;;;;;30.69;nan;102486.69;5041473;28;19928;-80
2023/06/03 10:58:21;;;;;;;;;;;;;;;30.67;nan;102486.22;5041629;28;20367;-83
2023/06/03 11:00:59;;;;;;;;;;;;;;;30.74;nan;102483.72;5040090;28;19930;-84
2023/06/03 11:03:28;;;;;;;;;;;;;;;30.77;nan;102471.97;5040489;28;19936;-84
2023/06/03 11:05:54;;;;;;;;;;;;;;;30.75;nan;102479.81;5042675;28;20036;-83
2023/06/03 11:08:38;;;;;;;;;;;;;;;30.81;nan;102472.88;5041885;28;21192;-84
2023/06/03 11:11:03;;;;;;;;;;;;;;;30.96;nan;102480.50;5040922;28;19921;-84
2023/06/03 11:13:47;;;;;;;;;;;;;;;31.06;nan;102470.94;5043824;28;19925;-84
2023/06/03 11:16:14;;;;;;;;;;;;;;;31.17;nan;102472.09;5039270;28;20649;-83
2023/06/03 11:18:39;;;;;;;;;;;;;;;31.27;nan;102460.56;5043646;28;21099;-84
2023/06/03 11:21:24;;;;;;;;;;;;;;;31.27;nan;102462.53;5040999;28;19921;-84
2023/06/03 11:23:50;;;;;;;;;;;;;;;31.32;nan;102470.59;5042507;28;19917;-83
2023/06/03 11:26:35;;;;;;;;;;;;;;;31.43;nan;102460.66;5043849;28;20411;-81
2023/06/03 11:29:05;;;;;;;;;;;;;;;31.57;nan;102468.56;5046441;28;19969;-81
2023/06/03 11:31:31;;;;;;;;;;;;;;;31.65;nan;102456.56;5043407;28;19925;-81
2023/06/03 11:34:14;;;;;;;;;;;;;;;31.73;nan;102455.63;5038455;28;19962;-82
2023/06/03 11:37:06;;;;;;;;;;;;;;;31.82;nan;102453.53;5040780;28;20016;-81
2023/06/03 11:39:50;;;;;;;;;;;;;;;31.95;nan;102450.69;5039946;28;19927;-79
2023/06/03 11:42:16;;;;;;;;;;;;;;;32.05;nan;102448.22;5043026;28;19966;-79
2023/06/03 11:44:41;;;;;;;;;;;;;;;32.07;nan;102443.13;5036523;28;19925;-79
2023/06/03 11:47:07;;;;;;;;;;;;;;;31.95;nan;102443.19;5040549;28;19928;-80
2023/06/03 11:49:34;;;;;;;;;;;;;;;31.79;nan;102448.69;5044715;28;20384;-81
2023/06/03 11:52:01;;;;;;;;;;;;;;;31.75;nan;102441.41;5042875;28;20412;-84
2023/06/03 11:54:26;;;;;;;;;;;;;;;31.68;nan;102444.78;5043886;28;19917;-84
2023/06/03 11:56:54;;;;;;;;;;;;;;;31.73;nan;102449.28;5044029;28;19921;-81
2023/06/03 11:59:25;;;;;;;;;;;;;;;31.81;nan;102451.13;5040710;28;20595;-82
2023/06/03 12:02:00;;;;;;;;;;;;;;;31.92;nan;102452.19;5040218;28;19973;-81
2023/06/03 12:04:26;;;;;;;;;;;;;;;31.97;nan;102438.13;5038324;28;19920;-81
2023/06/03 12:06:52;;;;;;;;;;;;;;;32.03;nan;102447.78;5040981;28;19920;-81
2023/06/03 12:09:22;;;;;;;;;;;;;;;31.97;nan;102443.66;5042518;28;19925;-86
2023/06/03 12:11:47;;;;;;;;;;;;;;;31.67;nan;102434.84;5045750;28;19925;-83
2023/06/03 12:14:22;;;;;;;;;;;;;;;31.59;nan;102435.78;5043311;28;20573;-85
2023/06/03 12:16:48;;;;;;;;;;;;;;;31.64;nan;102437.53;5043900;28;19924;-83
2023/06/03 12:19:13;;;;;;;;;;;;;;;31.64;nan;102429.22;5042304;28;19928;-82
2023/06/03 12:21:39;;;;;;;;;;;;;;;31.54;nan;102425.75;5041101;28;19924;-83
2023/06/03 12:24:09;;;;;;;;;;;;;;;31.49;nan;102428.78;5044170;28;19927;-82
2023/06/03 12:26:35;;;;;;;;;;;;;;;31.58;nan;102429.44;5043697;28;19932;-82
2023/06/03 12:29:10;;;;;;;;;;;;;;;31.71;nan;102423.84;5044493;28;19917;-80
2023/06/03 12:31:35;;;;;;;;;;;;;;;31.86;nan;102420.38;5043465;28;20446;-81
2023/06/03 12:34:01;;;;;;;;;;;;;;;32.07;nan;102426.50;5039982;28;19921;-81
2023/06/03 12:36:56;;;;;;;;;;;;;;;32.19;nan;102424.81;5043699;28;20373;-81
2023/06/03 12:39:37;;;;;;;;;;;;;;;32.27;nan;102423.88;5034881;28;19989;-80
2023/06/03 12:42:03;;;;;;;;;;;;;;;32.39;nan;102415.47;5043907;28;19924;-81
2023/06/03 12:44:28;;;;;;;;;;;;;;;32.53;nan;102413.06;5039998;28;19924;-81
2023/06/03 12:46:59;;;;;;;;;;;;;;;32.60;nan;102406.88;5039916;28;19925;-81
2023/06/03 12:49:24;;;;;;;;;;;;;;;32.54;nan;102403.56;5039143;28;20368;-81
2023/06/03 12:51:49;;;;;;;;;;;;;;;32.61;nan;102398.19;5041645;28;19995;-81
2023/06/03 12:54:15;;;;;;;;;;;;;;;32.75;nan;102389.41;5041907;28;20296;-82
2023/06/03 12:56:43;;;;;;;;;;;;;;;32.88;nan;102384.59;5040994;28;19925;-81
2023/06/03 12:59:08;;;;;;;;;;;;;;;32.97;nan;102379.63;5040083;28;20483;-85